Time;durP1;ratioP1;P1;durP2;ratioP2;P2;SDS_P1;SDS_P2;PMS_P1;PMS_P2;Temp;Humidity;BMP_temperature;BMP_pressure;BME280_temperature;BME280_humidity;BME280_pressure;Samples;Min_cycle;Max_cycle;Signal;HPM_P1;HPM_P2
2024/04/11 00:00:01;;;;;;;4.10;3.33;;;;;;;8.42;70.81;153523.16;5455560;26;20333;-95
2024/04/11 00:02:30;;;;;;;6.27;3.50;;;;;;;8.42;70.57;153521.84;5456153;26;20454;-95
2024/04/11 00:04:55;;;;;;;4.53;3.47;;;;;;;8.42;71.10;153523.16;5455907;26;20263;-95
2024/04/11 00:07:28;;;;;;;4.40;3.67;;;;;;;8.40;71.40;153518.00;5465773;26;20522;-94
2024/04/11 00:09:54;;;;;;;4.87;3.23;;;;;;;8.41;71.49;153520.59;5459456;26;21049;-95
2024/04/11 00:12:22;;;;;;;4.27;3.80;;;;;;;8.44;71.90;153527.06;5491216;26;20587;-95
2024/04/11 00:14:49;;;;;;;6.37;4.20;;;;;;;8.47;72.17;153536.06;5485282;26;20252;-95
2024/04/11 00:17:18;;;;;;;6.07;3.73;;;;;;;8.51;72.38;153546.44;5455734;26;20948;-95
2024/04/11 00:19:43;;;;;;;6.43;3.70;;;;;;;8.53;72.39;153551.59;5458364;26;20462;-95
2024/04/11 00:22:12;;;;;;;3.53;3.10;;;;;;;8.55;72.27;153556.75;5459274;26;20521;-94
2024/04/11 00:24:41;;;;;;;4.27;2.90;;;;;;;8.58;72.25;153564.53;5480534;26;20259;-94
2024/04/11 00:27:09;;;;;;;5.70;3.80;;;;;;;8.57;72.30;153561.97;5524726;26;20493;-93
2024/04/11 00:29:38;;;;;;;5.37;3.50;;;;;;;8.55;72.28;153555.50;5525297;26;20484;-95
2024/04/11 00:32:07;;;;;;;4.20;3.33;;;;;;;8.54;72.89;153554.19;5494272;26;20796;-95
2024/04/11 00:34:33;;;;;;;4.60;3.40;;;;;;;8.55;72.82;153556.75;5481038;26;20474;-93
2024/04/11 00:37:02;;;;;;;7.00;3.53;;;;;;;8.54;73.06;153554.19;5492269;26;20544;-94
2024/04/11 00:39:28;;;;;;;4.83;3.00;;;;;;;8.56;72.85;153558.06;5492855;26;20472;-93
2024/04/11 00:41:59;;;;;;;6.63;3.83;;;;;;;8.55;73.14;153556.75;5493101;26;20559;-93
2024/04/11 00:44:25;;;;;;;4.90;2.53;;;;;;;8.52;73.01;153549.00;5493568;26;20474;-94
2024/04/11 00:46:54;;;;;;;4.43;3.20;;;;;;;8.50;73.16;153543.84;5487962;26;21085;-94
2024/04/11 00:49:21;;;;;;;4.10;3.20;;;;;;;8.48;72.91;153538.69;5484177;26;20355;-95
2024/04/11 00:51:50;;;;;;;5.53;3.13;;;;;;;8.44;73.25;153528.34;5489613;26;20452;-94
2024/04/11 00:54:16;;;;;;;5.80;2.83;;;;;;;8.40;73.58;153516.69;5491197;25;20446;-94
2024/04/11 00:56:48;;;;;;;5.33;2.90;;;;;;;8.41;73.29;153519.28;5488332;26;20474;-93
2024/04/11 00:59:18;;;;;;;4.77;3.80;;;;;;;8.37;73.61;153510.22;5491362;26;20466;-95
2024/04/11 01:01:46;;;;;;;5.23;3.67;;;;;;;8.30;73.34;153492.16;5458804;26;20454;-94
2024/04/11 01:04:12;;;;;;;5.63;3.50;;;;;;;8.24;73.84;153476.59;5458554;26;20996;-93
2024/04/11 01:07:06;;;;;;;5.37;4.00;;;;;;;8.20;74.17;153466.28;5490959;26;20487;-94
2024/04/11 01:09:30;;;;;;;4.70;4.20;;;;;;;8.19;74.20;153462.38;5493138;26;20621;-93
2024/04/11 01:11:58;;;;;;;7.80;5.10;;;;;;;8.16;74.41;153455.91;5494260;26;20461;-93
2024/04/11 01:14:27;;;;;;;6.37;4.10;;;;;;;8.15;74.42;153452.03;5479220;26;20332;-95
2024/04/11 01:16:55;;;;;;;6.10;4.03;;;;;;;8.11;74.12;153443.00;5488295;26;20813;-94
2024/04/11 01:19:22;;;;;;;4.50;4.00;;;;;;;8.06;73.99;153430.06;5458972;26;20485;-94
2024/04/11 01:21:51;;;;;;;6.40;4.20;;;;;;;8.03;74.54;153421.00;5428115;26;20576;-95
2024/04/11 01:24:19;;;;;;;5.33;4.30;;;;;;;7.98;74.10;153409.41;5473085;26;20478;-94
2024/04/11 01:26:48;;;;;;;4.17;3.60;;;;;;;7.88;74.18;153383.56;5477342;25;20466;-93
2024/04/11 01:29:13;;;;;;;9.10;3.77;;;;;;;7.78;75.04;153357.72;5505074;26;20465;-93
2024/04/11 01:31:42;;;;;;;5.80;4.00;;;;;;;7.75;75.82;153349.97;5488313;26;20496;-93
2024/04/11 01:34:08;;;;;;;6.47;4.10;;;;;;;7.71;76.11;153340.91;5472149;26;20263;-93
2024/04/11 01:36:38;;;;;;;8.27;4.37;;;;;;;7.61;76.02;153315.09;5457781;26;21026;-93
2024/04/11 01:39:09;;;;;;;4.03;3.20;;;;;;;7.49;76.04;153282.81;5457961;26;20474;-93
2024/04/11 01:41:40;;;;;;;8.90;4.70;;;;;;;7.42;76.52;153266.00;5458975;26;20454;-94
2024/04/11 01:44:07;;;;;;;5.47;3.93;;;;;;;7.39;77.00;153257.00;5474115;26;20513;-94
2024/04/11 01:46:37;;;;;;;4.87;3.50;;;;;;;7.34;76.88;153246.63;5466143;26;20454;-93
2024/04/11 01:49:03;;;;;;;5.73;3.83;;;;;;;7.28;77.10;153229.88;5468327;26;20272;-93
2024/04/11 01:51:32;;;;;;;7.87;4.20;;;;;;;7.23;77.29;153218.22;5496242;26;20469;-93
2024/04/11 01:53:57;;;;;;;6.00;3.73;;;;;;;7.15;77.24;153196.25;5466239;26;20510;-92
2024/04/11 01:56:27;;;;;;;3.77;3.33;;;;;;;7.08;77.46;153179.50;5461113;26;20551;-92
2024/04/11 01:58:55;;;;;;;4.23;3.83;;;;;;;7.05;78.07;153170.44;5456444;26;20790;-93
2024/04/11 02:01:25;;;;;;;5.83;4.00;;;;;;;7.01;78.16;153160.13;5472640;26;20453;-94
2024/04/11 02:03:53;;;;;;;6.10;4.30;;;;;;;6.96;78.13;153148.53;5486714;26;20516;-93
2024/04/11 02:06:23;;;;;;;5.77;5.17;;;;;;;6.92;78.30;153138.19;5471857;26;20552;-93
2024/04/11 02:08:49;;;;;;;4.80;3.80;;;;;;;6.87;78.26;153125.28;5494568;26;20464;-92
2024/04/11 02:11:17;;;;;;;3.83;3.33;;;;;;;6.86;78.11;153121.44;5494632;26;20520;-92
2024/04/11 02:13:43;;;;;;;5.87;3.60;;;;;;;6.81;78.23;153109.78;5455650;26;20253;-92
2024/04/11 02:16:13;;;;;;;6.27;4.00;;;;;;;6.79;78.11;153103.31;5461595;26;20517;-93
2024/04/11 02:18:40;;;;;;;5.00;3.70;;;;;;;6.74;78.40;153091.72;5486010;26;20232;-94
2024/04/11 02:21:08;;;;;;;5.60;3.60;;;;;;;6.70;78.68;153081.38;5513465;26;20466;-93
2024/04/11 02:23:34;;;;;;;4.00;3.60;;;;;;;6.72;79.12;153087.81;5459694;26;20568;-93
2024/04/11 02:26:02;;;;;;;3.70;3.10;;;;;;;6.70;79.17;153081.38;5458159;26;20526;-93
2024/04/11 02:28:28;;;;;;;6.70;3.60;;;;;;;6.69;79.29;153078.81;5492009;26;20519;-93
2024/04/11 02:30:57;;;;;;;3.80;3.17;;;;;;;6.68;79.19;153076.22;5492228;26;20514;-92
2024/04/11 02:33:29;;;;;;;4.60;3.40;;;;;;;6.74;79.51;153091.72;5492560;26;20448;-93
2024/04/11 02:35:57;;;;;;;7.63;3.57;;;;;;;6.81;79.47;153108.47;5493923;26;21092;-93
2024/04/11 02:38:25;;;;;;;5.23;3.63;;;;;;;6.78;78.71;153102.03;5465987;26;20454;-92
2024/04/11 02:40:54;;;;;;;5.30;3.70;;;;;;;6.68;78.42;153076.22;5490004;26;20512;-92
2024/04/11 02:43:20;;;;;;;5.67;3.30;;;;;;;6.62;78.98;153060.72;5491262;26;20555;-92
2024/04/11 02:45:49;;;;;;;4.97;3.60;;;;;;;6.61;79.02;153059.47;5491289;26;20470;-92
2024/04/11 02:48:15;;;;;;;4.70;3.10;;;;;;;6.60;79.33;153055.56;5487355;26;20317;-92
2024/04/11 02:50:46;;;;;;;5.43;3.57;;;;;;;6.55;79.68;153043.97;5455805;26;20470;-93
2024/04/11 02:53:17;;;;;;;3.90;2.90;;;;;;;6.50;80.11;153031.06;5486176;26;20232;-93
2024/04/11 02:55:44;;;;;;;4.87;3.23;;;;;;;6.48;80.59;153025.91;5455492;26;20458;-93
2024/04/11 02:58:12;;;;;;;5.00;3.67;;;;;;;6.46;80.60;153019.47;5455677;26;20508;-93
2024/04/11 03:00:38;;;;;;;6.27;3.83;;;;;;;6.42;80.62;153009.13;5516489;26;20477;-94
2024/04/11 03:03:07;;;;;;;5.77;3.47;;;;;;;6.36;80.37;152994.91;5455102;26;20869;-93
2024/04/11 03:05:36;;;;;;;6.90;3.40;;;;;;;6.41;80.33;153006.53;5455420;26;20245;-93
2024/04/11 03:08:09;;;;;;;7.20;3.50;;;;;;;6.39;80.02;153002.66;5456076;26;20457;-93
2024/04/11 03:10:36;;;;;;;3.70;3.30;;;;;;;6.38;79.86;152998.81;5486563;26;20956;-93
2024/04/11 03:13:07;;;;;;;5.07;3.57;;;;;;;6.34;79.94;152988.47;5492564;26;20511;-93
2024/04/11 03:15:32;;;;;;;4.10;3.00;;;;;;;6.32;80.49;152983.31;5491556;26;20649;-93
2024/04/11 03:18:01;;;;;;;8.70;3.53;;;;;;;6.32;80.14;152983.31;5485324;26;20485;-94
2024/04/11 03:20:27;;;;;;;4.20;2.93;;;;;;;6.36;79.97;152994.91;5496930;26;20255;-93
2024/04/11 03:22:55;;;;;;;3.40;2.80;;;;;;;6.42;79.49;153009.13;5485654;26;20493;-93
2024/04/11 03:25:23;;;;;;;4.00;3.10;;;;;;;6.40;79.51;153003.97;5457097;26;20271;-93
2024/04/11 03:27:51;;;;;;;8.63;3.70;;;;;;;6.37;79.46;152996.22;5473594;26;20476;-93
2024/04/11 03:30:17;;;;;;;3.53;3.17;;;;;;;6.37;80.25;152997.53;5455168;26;20571;-93
2024/04/11 03:32:45;;;;;;;7.00;3.53;;;;;;;6.38;80.15;152998.81;5458739;26;20477;-93
2024/04/11 03:35:11;;;;;;;4.50;3.57;;;;;;;6.42;80.42;153009.13;5467593;26;20268;-93
2024/04/11 03:37:39;;;;;;;4.60;3.83;;;;;;;6.44;80.55;153014.28;5455329;26;20506;-93
2024/04/11 03:40:06;;;;;;;4.90;3.93;;;;;;;6.42;80.46;153010.41;5472443;26;20798;-91
2024/04/11 03:42:37;;;;;;;7.53;4.73;;;;;;;6.45;80.29;153016.88;5472115;26;20897;-93
2024/04/11 03:45:22;;;;;;;6.63;5.17;;;;;;;6.45;80.65;153016.88;5454880;26;20510;-93
2024/04/11 03:47:50;;;;;;;9.63;4.90;;;;;;;6.39;80.86;153002.66;5454991;26;20461;-93
2024/04/11 03:50:19;;;;;;;7.57;5.70;;;;;;;6.34;80.74;152988.47;5490162;26;20543;-93
2024/04/11 03:52:45;;;;;;;7.00;5.17;;;;;;;6.30;81.10;152978.16;5455666;26;20505;-94
2024/04/11 03:55:13;;;;;;;5.93;4.50;;;;;;;6.26;81.19;152967.81;5489040;26;20512;-94
2024/04/11 03:57:42;;;;;;;9.67;4.57;;;;;;;6.25;81.53;152965.28;5458958;26;20492;-94
2024/04/11 04:00:11;;;;;;;7.47;4.50;;;;;;;6.18;81.82;152947.19;5458380;26;20504;-95
2024/04/11 04:02:39;;;;;;;9.77;4.27;;;;;;;6.16;82.13;152943.31;5458435;26;20783;-95
2024/04/11 04:05:13;;;;;;;5.80;4.60;;;;;;;6.12;82.25;152932.97;5489017;26;20465;-94
2024/04/11 04:07:38;;;;;;;4.63;4.17;;;;;;;6.10;82.39;152929.13;5478513;26;20260;-94
2024/04/11 04:10:07;;;;;;;6.97;4.63;;;;;;;6.09;82.79;152926.53;5474117;26;20510;-94
2024/04/11 04:12:36;;;;;;;4.80;4.30;;;;;;;6.06;82.86;152918.78;5489263;26;20232;-94
2024/04/11 04:15:08;;;;;;;4.73;3.73;;;;;;;6.04;83.13;152913.63;5489144;26;20476;-94
2024/04/11 04:17:34;;;;;;;6.37;4.83;;;;;;;6.01;83.31;152904.66;5459029;26;20445;-95
2024/04/11 04:20:03;;;;;;;8.30;4.83;;;;;;;6.01;83.33;152905.88;5492177;26;20465;-94
2024/04/11 04:22:29;;;;;;;7.30;4.70;;;;;;;5.96;83.59;152893.00;5478770;26;20255;-95
2024/04/11 04:24:59;;;;;;;6.30;5.27;;;;;;;5.96;83.22;152893.00;5470182;26;20462;-94
2024/04/11 04:27:25;;;;;;;6.70;5.63;;;;;;;5.96;83.20;152893.00;5488583;26;20343;-94
2024/04/11 04:29:55;;;;;;;5.53;4.90;;;;;;;5.93;83.07;152885.25;5488548;26;20507;-95
2024/04/11 04:32:23;;;;;;;7.37;5.00;;;;;;;5.91;83.46;152880.09;5469297;26;20480;-94
2024/04/11 04:34:51;;;;;;;8.33;5.30;;;;;;;5.87;83.58;152869.81;5466754;26;20528;-94
2024/04/11 04:37:17;;;;;;;7.50;5.80;;;;;;;5.90;84.08;152877.56;5457962;26;20520;-95
2024/04/11 04:39:46;;;;;;;7.93;5.40;;;;;;;6.14;85.33;152939.44;5466250;26;20473;-94
2024/04/11 04:42:13;;;;;;;8.00;5.50;;;;;;;6.12;84.85;152934.28;5487824;26;20563;-94
2024/04/11 04:44:41;;;;;;;8.10;5.60;;;;;;;6.04;84.51;152913.63;5519021;26;20454;-94
2024/04/11 04:47:16;;;;;;;6.50;5.27;;;;;;;6.02;84.60;152908.50;5458237;26;20841;-95
2024/04/11 04:49:53;;;;;;;7.50;5.10;;;;;;;6.06;84.37;152918.78;5469738;26;20465;-94
2024/04/11 04:52:21;;;;;;;6.43;5.40;;;;;;;6.02;83.98;152908.50;5457849;26;20604;-94
2024/04/11 04:54:51;;;;;;;5.60;5.10;;;;;;;6.00;83.93;152903.34;5457713;26;20466;-94
2024/04/11 04:57:16;;;;;;;6.77;4.87;;;;;;;5.99;84.23;152900.75;5507602;26;20510;-89
2024/04/11 04:59:45;;;;;;;7.90;5.27;;;;;;;5.98;84.15;152898.16;5491479;26;20461;-93
2024/04/11 05:02:11;;;;;;;6.33;5.67;;;;;;;5.97;83.95;152894.28;5545490;26;20235;-93
2024/04/11 05:04:39;;;;;;;6.53;5.30;;;;;;;5.97;84.14;152895.59;5478219;26;20583;-93
2024/04/11 05:07:08;;;;;;;6.47;5.80;;;;;;;5.98;84.44;152898.16;5476382;26;20252;-91
2024/04/11 05:09:37;;;;;;;5.50;4.83;;;;;;;6.00;84.72;152902.03;5514032;26;20473;-94
2024/04/11 05:12:04;;;;;;;5.60;4.87;;;;;;;6.02;85.04;152908.50;5520801;25;20477;-94
2024/04/11 05:14:38;;;;;;;6.23;5.33;;;;;;;6.08;85.10;152922.69;5472312;26;20522;-96
2024/04/11 05:17:04;;;;;;;6.47;5.20;;;;;;;6.11;85.59;152930.44;5459671;26;21079;-95
2024/04/11 05:19:33;;;;;;;6.53;5.33;;;;;;;6.17;85.41;152944.63;5461264;26;20506;-95
2024/04/11 05:21:59;;;;;;;9.50;6.87;;;;;;;6.22;85.64;152957.53;5463223;26;20837;-96
2024/04/11 05:24:31;;;;;;;7.03;5.60;;;;;;;6.26;85.64;152967.81;5466288;26;20515;-96
2024/04/11 05:26:57;;;;;;;10.10;5.97;;;;;;;6.30;85.34;152979.41;5464887;26;20221;-96
2024/04/11 05:29:26;;;;;;;8.60;5.93;;;;;;;6.33;85.59;152985.91;5471853;26;20461;-96
2024/04/11 05:31:56;;;;;;;8.20;5.70;;;;;;;6.38;85.59;153000.06;5465142;26;20502;-95
2024/04/11 05:34:26;;;;;;;6.80;5.90;;;;;;;6.47;85.55;153022.00;5464924;26;20575;-95
2024/04/11 05:36:53;;;;;;;9.00;5.77;;;;;;;6.53;85.38;153037.50;5460152;26;20549;-93
2024/04/11 05:39:22;;;;;;;7.70;5.90;;;;;;;6.60;85.01;153055.56;5482334;26;20537;-94
2024/04/11 05:41:51;;;;;;;7.70;5.53;;;;;;;6.68;84.51;153076.22;5519474;26;20486;-95
2024/04/11 05:44:20;;;;;;;8.47;6.30;;;;;;;6.80;84.78;153107.22;5489675;26;20589;-95
2024/04/11 05:46:46;;;;;;;6.70;5.83;;;;;;;7.02;84.58;153162.69;5486026;26;21063;-94
2024/04/11 05:49:16;;;;;;;8.57;5.87;;;;;;;7.25;84.31;153222.13;5491143;26;20477;-95
2024/04/11 05:51:41;;;;;;;6.80;6.10;;;;;;;7.49;83.24;153282.81;5458367;26;20712;-95
2024/04/11 05:54:10;;;;;;;8.17;5.97;;;;;;;7.75;82.62;153349.97;5481955;26;20474;-95
2024/04/11 05:56:37;;;;;;;7.60;5.50;;;;;;;8.02;82.02;153418.44;5461960;26;20252;-94
2024/04/11 05:59:08;;;;;;;8.20;6.40;;;;;;;8.29;80.39;153489.56;5467862;26;20484;-93
2024/04/11 06:01:36;;;;;;;6.80;5.60;;;;;;;8.54;79.19;153554.19;5476402;26;20582;-93
2024/04/11 06:04:06;;;;;;;9.07;5.63;;;;;;;8.75;77.82;153607.19;5467722;26;20458;-93
2024/04/11 06:06:32;;;;;;;7.73;5.70;;;;;;;8.96;76.91;153660.19;5483534;26;20465;-93
2024/04/11 06:09:02;;;;;;;9.20;6.57;;;;;;;9.17;75.82;153714.50;5459383;26;20482;-93
2024/04/11 06:11:28;;;;;;;10.60;6.50;;;;;;;9.39;75.08;153770.13;5493908;25;20477;-93
2024/04/11 06:13:57;;;;;;;4.90;4.40;;;;;;;9.61;74.16;153827.06;5477252;26;20526;-93
2024/04/11 06:16:25;;;;;;;7.17;5.43;;;;;;;9.84;73.25;153885.28;5470300;26;20335;-93
2024/04/11 06:18:54;;;;;;;5.03;4.53;;;;;;;10.00;71.85;153926.69;5464052;26;20497;-93
2024/04/11 06:21:31;;;;;;;5.63;5.03;;;;;;;10.26;71.71;153994.03;5466476;26;20486;-93
2024/04/11 06:24:00;;;;;;;4.70;4.10;;;;;;;10.50;70.27;154056.19;5475679;26;21032;-93
2024/04/11 06:26:26;;;;;;;5.07;4.20;;;;;;;10.69;68.50;154104.09;5532384;25;20473;-92
2024/04/11 06:28:55;;;;;;;5.70;4.37;;;;;;;10.88;68.20;154154.56;5464957;26;20508;-93
2024/04/11 06:31:24;;;;;;;5.57;4.60;;;;;;;11.15;68.17;154223.22;5488584;26;20690;-93
2024/04/11 06:33:55;;;;;;;5.17;4.67;;;;;;;11.39;66.34;154284.13;5474099;26;20478;-91
2024/04/11 06:36:21;;;;;;;4.97;4.47;;;;;;;11.59;65.10;154337.28;5465597;26;20544;-90
2024/04/11 06:38:51;;;;;;;5.33;4.10;;;;;;;11.82;62.90;154394.31;5476484;26;20480;-91
2024/04/11 06:41:22;;;;;;;5.23;4.50;;;;;;;12.01;61.25;154444.91;5472711;26;20247;-91
2024/04/11 06:43:50;;;;;;;5.00;4.50;;;;;;;12.17;61.69;154486.38;5496510;26;20481;-91
2024/04/11 06:46:18;;;;;;;6.13;4.37;;;;;;;12.43;61.71;154551.19;5471995;26;20471;-91
2024/04/11 06:48:46;;;;;;;6.73;4.10;;;;;;;12.57;61.17;154587.50;5499314;26;20464;-90
2024/04/11 06:51:15;;;;;;;6.20;4.10;;;;;;;12.77;60.70;154639.38;5493940;25;20540;-90
2024/04/11 06:53:44;;;;;;;7.50;4.57;;;;;;;12.96;59.59;154688.66;5497215;26;20465;-93
2024/04/11 06:56:11;;;;;;;5.70;4.17;;;;;;;13.07;57.95;154715.97;5491177;26;20572;-90
2024/04/11 06:58:40;;;;;;;6.53;3.90;;;;;;;13.20;57.98;154751.00;5508973;26;20520;-90
2024/04/11 07:01:09;;;;;;;6.10;4.93;;;;;;;13.24;56.88;154761.34;5493902;26;20473;-91
2024/04/11 07:03:40;;;;;;;5.53;4.20;;;;;;;13.43;57.35;154810.66;5498109;26;20533;-91
2024/04/11 07:06:09;;;;;;;8.87;4.43;;;;;;;13.56;56.86;154843.09;5464916;26;20477;-90
2024/04/11 07:08:42;;;;;;;4.87;4.37;;;;;;;13.70;56.25;154879.47;5492819;26;20539;-90
2024/04/11 07:11:18;;;;;;;6.63;5.53;;;;;;;13.85;56.94;154917.06;5500022;26;20959;-90
2024/04/11 07:13:47;;;;;;;5.43;3.97;;;;;;;14.04;56.65;154967.72;5489849;26;20533;-90
2024/04/11 07:16:16;;;;;;;6.90;4.77;;;;;;;14.20;56.10;155007.97;5496762;26;20478;-90
2024/04/11 07:18:48;;;;;;;5.47;4.87;;;;;;;14.33;55.64;155041.78;5521017;25;20864;-89
2024/04/11 07:21:17;;;;;;;7.03;4.87;;;;;;;14.44;55.18;155070.38;5493907;26;20492;-89
2024/04/11 07:23:53;;;;;;;4.80;4.30;;;;;;;14.56;54.70;155101.50;5498432;26;20519;-89
2024/04/11 07:26:22;;;;;;;7.73;4.93;;;;;;;14.71;53.19;155137.91;5498418;26;20522;-90
2024/04/11 07:28:50;;;;;;;6.10;4.53;;;;;;;14.78;54.15;155156.06;5493369;26;20492;-90
2024/04/11 07:31:16;;;;;;;8.53;4.90;;;;;;;15.03;54.96;155222.34;5494449;26;20578;-90
2024/04/11 07:33:48;;;;;;;6.30;5.17;;;;;;;15.15;53.29;155253.53;5493792;26;20466;-90
2024/04/11 07:36:14;;;;;;;6.00;4.60;;;;;;;15.17;52.48;155258.72;5495335;26;20530;-90
2024/04/11 07:38:43;;;;;;;6.73;4.70;;;;;;;15.35;53.66;155304.22;5473414;26;20470;-90
2024/04/11 07:41:17;;;;;;;5.07;4.60;;;;;;;15.46;52.88;155332.81;5497487;26;20488;-90
2024/04/11 07:43:51;;;;;;;5.23;4.73;;;;;;;15.63;52.25;155377.03;5503203;25;20466;-88
2024/04/11 07:46:17;;;;;;;6.67;4.53;;;;;;;15.81;52.05;155422.53;5494621;25;21010;-90
2024/04/11 07:48:51;;;;;;;6.87;5.83;;;;;;;16.03;51.82;155478.44;5499346;26;21097;-90
2024/04/11 07:51:17;;;;;;;5.97;5.30;;;;;;;16.09;51.49;155495.38;5502788;26;20807;-89
2024/04/11 07:53:47;;;;;;;6.33;5.23;;;;;;;16.04;51.06;155482.38;5497173;25;20460;-90
2024/04/11 07:56:19;;;;;;;7.57;5.90;;;;;;;16.19;50.87;155520.03;5496896;25;20341;-89
2024/04/11 07:58:48;;;;;;;6.63;5.93;;;;;;;15.99;51.32;155468.06;5499045;26;20477;-89
2024/04/11 08:01:14;;;;;;;6.33;5.80;;;;;;;15.90;50.22;155444.63;5467424;26;20546;-90
2024/04/11 08:03:43;;;;;;;9.20;6.13;;;;;;;16.14;51.01;155507.06;5492798;26;20516;-90
2024/04/11 08:06:10;;;;;;;6.93;5.83;;;;;;;16.28;49.87;155543.47;5469936;26;20908;-89
2024/04/11 08:08:38;;;;;;;7.73;5.90;;;;;;;16.06;50.31;155486.25;5489460;26;20994;-90
2024/04/11 08:11:06;;;;;;;10.57;5.33;;;;;;;15.79;50.75;155417.34;5496056;26;21043;-88
2024/04/11 08:13:37;;;;;;;7.90;5.07;;;;;;;15.12;52.83;155245.72;5497057;25;20981;-86
2024/04/11 08:16:04;;;;;;;8.27;5.63;;;;;;;14.79;54.13;155158.69;5490963;26;20533;-90
2024/04/11 08:18:33;;;;;;;7.83;5.50;;;;;;;14.50;54.91;155085.97;5493017;26;21016;-90
2024/04/11 08:20:59;;;;;;;8.80;5.50;;;;;;;14.56;55.09;155101.50;5504805;26;21138;-89
2024/04/11 08:23:29;;;;;;;5.70;5.10;;;;;;;14.50;55.02;155085.97;5486157;26;20482;-89
2024/04/11 08:25:56;;;;;;;8.83;5.40;;;;;;;14.79;54.71;155158.69;5523218;25;20253;-89
2024/04/11 08:28:25;;;;;;;6.17;4.20;;;;;;;15.10;53.62;155240.53;5518607;25;20603;-89
2024/04/11 08:30:53;;;;;;;6.00;5.40;;;;;;;15.34;52.88;155301.59;5510161;25;20740;-87
2024/04/11 08:33:22;;;;;;;5.30;4.80;;;;;;;15.51;52.11;155345.88;5504003;25;20518;-87
2024/04/11 08:35:47;;;;;;;6.07;5.07;;;;;;;15.72;52.29;155400.47;5502934;26;20943;-86
2024/04/11 08:38:18;;;;;;;5.70;4.90;;;;;;;15.91;50.84;155447.25;5501466;25;20520;-86
2024/04/11 08:40:44;;;;;;;6.77;4.80;;;;;;;15.67;50.06;155387.41;5500305;26;20267;-86
2024/04/11 08:43:15;;;;;;;5.90;4.73;;;;;;;15.71;50.19;155397.84;5501735;25;20470;-86
2024/04/11 08:45:42;;;;;;;9.40;4.10;;;;;;;15.87;50.65;155436.81;5500853;26;20484;-87
2024/04/11 08:48:13;;;;;;;6.20;4.23;;;;;;;15.89;49.51;155442.00;5512292;26;20506;-86
2024/04/11 08:50:41;;;;;;;6.37;4.47;;;;;;;15.92;49.00;155449.81;5496126;26;20522;-86
2024/04/11 08:53:11;;;;;;;4.20;3.70;;;;;;;15.98;50.00;155465.44;5501461;26;21043;-86
2024/04/11 08:55:37;;;;;;;7.40;3.97;;;;;;;15.85;48.72;155432.94;5498135;26;20472;-86
2024/04/11 08:58:06;;;;;;;7.30;5.10;;;;;;;15.63;49.37;155377.03;5501388;26;20536;-85
2024/04/11 09:00:32;;;;;;;4.13;3.73;;;;;;;15.59;50.99;155365.34;5499995;26;20589;-87
2024/04/11 09:03:01;;;;;;;4.90;3.20;;;;;;;15.72;50.12;155400.47;5498841;26;20472;-86
2024/04/11 09:05:30;;;;;;;4.90;3.77;;;;;;;15.56;49.31;155358.84;5496589;26;20502;-86
2024/04/11 09:07:59;;;;;;;4.97;3.30;;;;;;;15.36;47.67;155305.47;5494332;26;20533;-86
2024/04/11 09:10:25;;;;;;;5.83;3.50;;;;;;;15.42;49.31;155321.09;5497114;26;20562;-86
2024/04/11 09:12:54;;;;;;;3.50;3.07;;;;;;;15.72;49.30;155399.16;5499209;26;20468;-87
2024/04/11 09:15:19;;;;;;;4.13;2.87;;;;;;;15.89;48.31;155442.00;5494997;25;20764;-87
2024/04/11 09:17:50;;;;;;;3.50;2.97;;;;;;;15.83;47.22;155427.75;5501326;26;20462;-87
2024/04/11 09:20:19;;;;;;;4.17;2.77;;;;;;;15.61;46.68;155371.84;5497599;26;20875;-89
2024/04/11 09:22:59;;;;;;;3.57;2.80;;;;;;;15.38;46.76;155310.72;5468528;26;20594;-89
2024/04/11 09:25:26;;;;;;;3.97;3.00;;;;;;;15.25;48.01;155278.19;5496937;26;20476;-88
2024/04/11 09:27:58;;;;;;;5.47;3.07;;;;;;;15.51;48.67;155345.88;5502054;26;20532;-89
2024/04/11 09:30:29;;;;;;;4.40;3.10;;;;;;;15.54;46.94;155353.63;5511092;26;20496;-89
2024/04/11 09:33:04;;;;;;;5.80;2.83;;;;;;;15.63;48.09;155375.72;5500258;25;20488;-88
2024/04/11 09:35:32;;;;;;;3.97;2.90;;;;;;;15.82;47.98;155426.44;5498338;26;20925;-88
2024/04/11 09:38:08;;;;;;;3.90;2.97;;;;;;;15.98;47.67;155465.44;5504547;26;20520;-87
2024/04/11 09:40:34;;;;;;;4.53;3.17;;;;;;;15.94;47.99;155455.06;5496715;25;21005;-88
2024/04/11 09:43:06;;;;;;;3.83;3.37;;;;;;;16.07;47.04;155490.13;5497790;26;20581;-88
2024/04/11 09:45:34;;;;;;;5.67;3.23;;;;;;;16.11;47.93;155500.56;5492835;26;20295;-88
2024/04/11 09:48:05;;;;;;;4.80;3.17;;;;;;;16.20;46.75;155523.94;5496754;25;20524;-89
2024/04/11 09:50:31;;;;;;;4.27;3.53;;;;;;;16.17;46.61;155514.88;5524985;25;20484;-89
2024/04/11 09:53:02;;;;;;;4.97;3.00;;;;;;;16.14;46.80;155508.38;5496709;25;21027;-88
2024/04/11 09:55:33;;;;;;;3.93;2.97;;;;;;;16.27;45.50;155540.84;5494185;26;20240;-88
2024/04/11 09:58:04;;;;;;;4.40;2.83;;;;;;;16.35;45.07;155561.66;5493218;26;20457;-88
2024/04/11 10:00:48;;;;;;;4.00;3.10;;;;;;;16.23;44.62;155530.47;5493721;26;20485;-89
2024/04/11 10:03:18;;;;;;;4.57;2.30;;;;;;;15.95;44.48;155458.94;5490845;26;20583;-89
2024/04/11 10:05:45;;;;;;;5.33;2.90;;;;;;;15.82;44.75;155425.13;5493890;26;20484;-90
2024/04/11 10:08:27;;;;;;;4.00;2.17;;;;;;;15.78;45.51;155414.72;5492325;26;20504;-89
2024/04/11 10:10:54;;;;;;;3.07;2.30;;;;;;;15.64;45.15;155378.34;5496207;26;21119;-89
2024/04/11 10:13:24;;;;;;;3.87;2.63;;;;;;;15.46;45.07;155331.56;5496945;26;20552;-90
2024/04/11 10:15:57;;;;;;;4.17;2.20;;;;;;;15.22;44.91;155270.44;5496144;26;21058;-90
2024/04/11 10:18:41;;;;;;;4.60;2.00;;;;;;;15.12;44.51;155244.41;5479768;26;20478;-89
2024/04/11 10:21:11;;;;;;;7.23;2.10;;;;;;;15.03;44.93;155221.03;5494872;26;20565;-89
2024/04/11 10:23:42;;;;;;;3.03;1.90;;;;;;;15.29;45.00;155287.31;5494974;26;20474;-90
2024/04/11 10:26:14;;;;;;;6.10;2.80;;;;;;;15.47;44.22;155335.44;5505582;26;20972;-90
2024/04/11 10:28:49;;;;;;;2.93;1.97;;;;;;;15.53;42.56;155349.75;5487679;26;20553;-91
2024/04/11 10:31:17;;;;;;;3.13;1.50;;;;;;;15.22;42.66;155270.44;5487527;26;20504;-90
2024/04/11 10:33:53;;;;;;;1.97;1.73;;;;;;;15.22;42.02;155270.44;5501507;26;20613;-89
2024/04/11 10:36:21;;;;;;;1.77;1.57;;;;;;;15.14;41.87;155249.66;5498922;26;20485;-90
2024/04/11 10:38:57;;;;;;;2.93;1.87;;;;;;;15.16;43.12;155254.81;5495298;26;20474;-90
2024/04/11 10:41:23;;;;;;;2.77;2.00;;;;;;;15.18;41.91;155260.00;5506593;26;20524;-89
2024/04/11 10:43:55;;;;;;;2.93;1.70;;;;;;;15.09;42.08;155236.66;5512188;26;20550;-90
2024/04/11 10:46:22;;;;;;;3.57;1.93;;;;;;;15.09;42.73;155236.66;5503396;26;20468;-90
2024/04/11 10:48:52;;;;;;;4.03;2.10;;;;;;;15.10;42.35;155240.53;5471131;26;20466;-90
2024/04/11 10:51:20;;;;;;;2.50;2.30;;;;;;;15.31;43.87;155293.78;5496955;26;20462;-90
2024/04/11 10:53:54;;;;;;;3.13;2.40;;;;;;;15.44;43.84;155327.59;5498443;26;20486;-89
2024/04/11 10:56:21;;;;;;;4.53;2.67;;;;;;;15.55;44.43;155354.94;5495517;26;20529;-90
2024/04/11 10:58:50;;;;;;;3.47;2.00;;;;;;;15.26;42.74;155280.81;5496627;25;20454;-89
2024/04/11 11:01:16;;;;;;;4.10;2.50;;;;;;;15.29;43.57;155288.63;5495590;26;20522;-90
2024/04/11 11:03:54;;;;;;;4.13;2.93;;;;;;;15.36;43.53;155306.78;5497353;26;20465;-90
2024/04/11 11:06:24;;;;;;;2.13;1.80;;;;;;;15.29;42.17;155287.31;5497783;26;21221;-90
2024/04/11 11:08:59;;;;;;;3.80;2.87;;;;;;;15.28;41.92;155286.00;5496354;26;20458;-90
2024/04/11 11:11:26;;;;;;;3.07;2.00;;;;;;;15.34;41.76;155301.59;5498377;26;20552;-89
2024/04/11 11:13:55;;;;;;;3.00;1.80;;;;;;;15.36;42.00;155306.78;5498015;25;20526;-90
2024/04/11 11:16:21;;;;;;;3.73;1.93;;;;;;;15.42;42.13;155322.41;5498342;25;20458;-90
2024/04/11 11:18:49;;;;;;;4.57;2.20;;;;;;;15.60;41.98;155369.22;5498098;26;20541;-91
2024/04/11 11:21:16;;;;;;;2.63;1.83;;;;;;;15.52;41.23;155348.44;5499734;26;20508;-90
2024/04/11 11:23:45;;;;;;;4.10;2.43;;;;;;;15.55;41.83;155354.94;5499709;26;20470;-90
2024/04/11 11:26:20;;;;;;;2.40;2.00;;;;;;;15.50;40.27;155343.25;5499355;26;20582;-90
2024/04/11 11:28:51;;;;;;;6.20;2.00;;;;;;;15.45;40.54;155328.91;5499713;26;20564;-89
2024/04/11 11:31:20;;;;;;;2.40;1.67;;;;;;;15.47;40.72;155335.44;5497759;26;20478;-89
2024/04/11 11:33:49;;;;;;;4.20;2.40;;;;;;;15.57;40.69;155361.44;5496326;26;20473;-90
2024/04/11 11:36:17;;;;;;;2.70;1.63;;;;;;;15.66;40.59;155384.84;5495107;26;20832;-89